createdAt,value
2022-10-21T00:00:30.117Z,99581.22
2022-10-21T00:01:31.886Z,99618.94
2022-10-21T00:02:34.026Z,99615.38
2022-10-21T00:03:36.889Z,99574.38
2022-10-21T00:04:38.677Z,99627.75
2022-10-21T00:05:41.209Z,99569.69
2022-10-21T00:06:43.236Z,99597.56
2022-10-21T00:07:45.263Z,99604.09
2022-10-21T00:08:47.357Z,99642.63
2022-10-21T00:09:48.935Z,99626.25
2022-10-21T00:10:53.762Z,99590.91
2022-10-21T00:11:56.910Z,99602.19
2022-10-21T00:12:58.519Z,99591.03
2022-10-21T00:14:00.190Z,99618.13
2022-10-21T00:15:05.008Z,99601.78
2022-10-21T00:16:14.191Z,99552.31
2022-10-21T00:17:16.071Z,99626.47
2022-10-21T00:18:17.929Z,99548.63
2022-10-21T00:19:19.552Z,99606.81
2022-10-21T00:21:24.065Z,99564.78
2022-10-21T00:22:25.762Z,99604.06
2022-10-21T00:23:29.304Z,99635.31
2022-10-21T00:24:31.079Z,99572.31
2022-10-21T00:25:33.927Z,99613.59
2022-10-21T00:26:38.561Z,99622.25
2022-10-21T00:27:42.578Z,99615.56
2022-10-21T00:28:45.617Z,99606.47
2022-10-21T00:29:49.053Z,99572.50
2022-10-21T00:30:51.065Z,99631.91
2022-10-21T00:31:54.660Z,99593.72
2022-10-21T00:33:02.075Z,99678.91
2022-10-21T00:34:08.150Z,99630.78
2022-10-21T00:35:10.081Z,99641.59
2022-10-21T00:36:15.827Z,99664.81
2022-10-21T00:37:18.550Z,99657.66
2022-10-21T00:39:24.374Z,99577.75
2022-10-21T00:40:26.002Z,99608.13
2022-10-21T00:41:31.277Z,99598.41
2022-10-21T00:42:42.170Z,99637.38
2022-10-21T00:44:02.474Z,99632.00
2022-10-21T00:45:06.972Z,99627.59
2022-10-21T00:46:10.645Z,99596.50
2022-10-21T00:47:21.799Z,99637.94
2022-10-21T00:48:27.374Z,99636.97
2022-10-21T00:49:44.597Z,99633.41
2022-10-21T00:51:04.110Z,99558.88
2022-10-21T00:52:12.117Z,99602.69
2022-10-21T00:53:16.045Z,99608.41
2022-10-21T00:54:20.765Z,99568.47
2022-10-21T00:55:24.154Z,99595.53
2022-10-21T00:56:30.790Z,99613.41
2022-10-21T00:57:36.841Z,99600.03
2022-10-21T00:58:39.879Z,99593.94
2022-10-21T00:59:47.329Z,99609.16
2022-10-21T01:00:51.485Z,99594.13
2022-10-21T01:01:54.496Z,99533.16
2022-10-21T01:02:56.640Z,99505.06
2022-10-21T01:03:58.644Z,99568.06
2022-10-21T01:05:02.616Z,99527.50
2022-10-21T01:06:09.856Z,99511.06
2022-10-21T01:07:12.649Z,99493.78
2022-10-21T01:08:14.284Z,99518.59
2022-10-21T01:09:19.290Z,99549.53
2022-10-21T01:10:21.012Z,99589.97
2022-10-21T01:11:24.499Z,99482.69
2022-10-21T01:13:02.364Z,99520.41
2022-10-21T01:14:27.082Z,99536.91
2022-10-21T01:15:58.122Z,99531.66
2022-10-21T01:17:26.274Z,99530.06
2022-10-21T01:18:43.747Z,99528.28
2022-10-21T01:20:25.793Z,99500.66
2022-10-21T01:22:00.200Z,99500.91
2022-10-21T01:23:40.775Z,99502.38
2022-10-21T01:25:01.397Z,99499.69
2022-10-21T01:26:59.013Z,99467.03
2022-10-21T01:28:05.520Z,99496.31
2022-10-21T01:29:37.992Z,99495.44
2022-10-21T01:30:43.784Z,99492.25
2022-10-21T01:31:51.770Z,99513.59
2022-10-21T01:33:23.642Z,99508.31
2022-10-21T01:34:57.392Z,99506.44
2022-10-21T01:36:29.016Z,99443.75
2022-10-21T01:37:43.218Z,99468.81
2022-10-21T01:39:06.884Z,99488.84
2022-10-21T01:40:22.352Z,99486.41
2022-10-21T01:42:05.315Z,99484.25
2022-10-21T01:43:36.327Z,99490.06
2022-10-21T01:44:51.111Z,99437.78
2022-10-21T01:46:07.306Z,99515.78
2022-10-21T01:47:30.386Z,99458.44
2022-10-21T01:48:50.422Z,99463.25
2022-10-21T01:50:06.383Z,99474.03
2022-10-21T01:51:10.205Z,99509.47
2022-10-21T01:52:13.509Z,99427.81
2022-10-21T01:53:16.431Z,99487.25
2022-10-21T01:54:31.582Z,99485.22
2022-10-21T01:55:35.733Z,99434.56
2022-10-21T01:56:41.539Z,99483.97
2022-10-21T01:57:56.352Z,99487.44
2022-10-21T01:59:03.189Z,99489.16
2022-10-21T02:00:05.535Z,99480.81
2022-10-21T02:01:09.058Z,99476.47
2022-10-21T02:02:16.211Z,99464.09
2022-10-21T02:03:26.928Z,99471.66
2022-10-21T02:04:33.972Z,99444.22
2022-10-21T02:05:36.506Z,99458.28
2022-10-21T02:06:38.215Z,99406.16
2022-10-21T02:07:43.038Z,99441.00
2022-10-21T02:08:45.298Z,99452.72
2022-10-21T02:09:47.139Z,99414.22
2022-10-21T02:10:52.714Z,99368.78
2022-10-21T02:11:59.970Z,99444.91
2022-10-21T02:13:06.128Z,99412.19
2022-10-21T02:14:18.342Z,99434.91
2022-10-21T02:15:23.544Z,99418.91
2022-10-21T02:16:37.805Z,99449.09
2022-10-21T02:17:44.717Z,99406.84
2022-10-21T02:18:47.272Z,99438.38
2022-10-21T02:19:50.389Z,99418.19
2022-10-21T02:21:16.796Z,99434.97
2022-10-21T02:22:22.716Z,99416.97
2022-10-21T02:23:55.110Z,99413.22
2022-10-21T02:25:04.782Z,99353.66
2022-10-21T02:26:07.692Z,99380.47
2022-10-21T02:27:10.781Z,99415.19
2022-10-21T02:28:14.130Z,99344.09
2022-10-21T02:29:22.301Z,99414.31
2022-10-21T02:30:25.080Z,99420.44
2022-10-21T02:31:44.285Z,99408.13
2022-10-21T02:33:04.257Z,99412.13
2022-10-21T02:34:27.952Z,99411.94
2022-10-21T02:35:43.126Z,99417.63
2022-10-21T02:36:53.956Z,99408.88
2022-10-21T02:38:01.970Z,99324.97
2022-10-21T02:39:11.821Z,99373.13
2022-10-21T02:40:20.699Z,99385.72
2022-10-21T02:41:25.221Z,99352.06
2022-10-21T02:42:38.320Z,99344.38
2022-10-21T02:43:47.161Z,99394.06
2022-10-21T02:44:52.396Z,99346.69
2022-10-21T02:45:59.778Z,99414.94
2022-10-21T02:47:03.651Z,99323.53
2022-10-21T02:48:06.592Z,99384.06
2022-10-21T02:49:09.357Z,99357.06
2022-10-21T02:50:11.023Z,99387.84
2022-10-21T02:51:15.388Z,99385.75
2022-10-21T02:52:18.671Z,99378.97
2022-10-21T02:53:20.273Z,99352.06
2022-10-21T02:54:22.122Z,99361.19
2022-10-21T02:55:25.532Z,99379.53
2022-10-21T02:56:27.734Z,99337.38
2022-10-21T02:57:29.852Z,99365.19
2022-10-21T02:58:33.380Z,99379.22
2022-10-21T02:59:36.824Z,99334.53
2022-10-21T03:00:39.742Z,99315.16
2022-10-21T03:01:41.422Z,99327.06
2022-10-21T03:02:43.066Z,99362.16
2022-10-21T03:03:45.674Z,99362.50
2022-10-21T03:04:48.754Z,99328.31
2022-10-21T03:05:52.964Z,99358.78
2022-10-21T03:06:54.733Z,99297.03
2022-10-21T03:07:57.550Z,99282.59
2022-10-21T03:08:59.456Z,99356.88
2022-10-21T03:10:02.429Z,99353.19
2022-10-21T03:11:04.983Z,99275.50
2022-10-21T03:12:06.817Z,99358.13
2022-10-21T03:13:08.912Z,99323.03
2022-10-21T03:14:10.774Z,99354.84
2022-10-21T03:15:12.644Z,99300.53
2022-10-21T03:16:14.281Z,99318.56
2022-10-21T03:17:16.009Z,99265.97
2022-10-21T03:18:18.687Z,99359.81
2022-10-21T03:19:21.793Z,99377.66
2022-10-21T03:20:24.992Z,99312.63
2022-10-21T03:21:29.023Z,99295.84
2022-10-21T03:22:30.617Z,99268.00
2022-10-21T03:23:32.888Z,99352.56
2022-10-21T03:24:34.615Z,99363.91
2022-10-21T03:25:36.686Z,99351.16
2022-10-21T03:26:38.679Z,99319.78
2022-10-21T03:27:41.735Z,99326.34
2022-10-21T03:28:43.547Z,99267.38
2022-10-21T03:29:45.733Z,99312.38
2022-10-21T03:30:47.879Z,99348.50
2022-10-21T03:31:51.877Z,99337.88
2022-10-21T03:32:55.206Z,99299.06
2022-10-21T03:33:57.087Z,99303.00
2022-10-21T03:34:59.169Z,99271.50
2022-10-21T03:36:01.341Z,99280.53
2022-10-21T03:37:04.843Z,99333.19
2022-10-21T03:38:06.820Z,99354.75
2022-10-21T03:39:10.557Z,99353.59
2022-10-21T03:40:12.597Z,99357.81
2022-10-21T03:41:14.308Z,99317.56
2022-10-21T03:42:17.055Z,99316.28
2022-10-21T03:43:18.756Z,99349.13
2022-10-21T03:44:20.633Z,99296.06
2022-10-21T03:45:22.176Z,99315.69
2022-10-21T03:46:23.800Z,99308.53
2022-10-21T03:47:25.363Z,99351.53
2022-10-21T03:48:26.928Z,99283.00
2022-10-21T03:49:28.833Z,99344.59
2022-10-21T03:50:30.878Z,99336.28
2022-10-21T03:51:32.864Z,99336.97
2022-10-21T03:52:36.159Z,99318.25
2022-10-21T03:53:43.378Z,99371.75
2022-10-21T03:54:45.380Z,99365.78
2022-10-21T03:55:47.064Z,99305.13
2022-10-21T03:56:50.360Z,99338.81
2022-10-21T03:57:53.943Z,99321.13
2022-10-21T03:58:58.776Z,99302.13
2022-10-21T04:00:00.631Z,99311.59
2022-10-21T04:01:03.919Z,99358.97
2022-10-21T04:02:07.031Z,99319.56
2022-10-21T04:03:10.111Z,99309.66
2022-10-21T04:04:11.795Z,99300.38
2022-10-21T04:05:13.547Z,99285.41
2022-10-21T04:06:16.346Z,99342.72
2022-10-21T04:07:18.053Z,99292.38
2022-10-21T04:08:19.733Z,99332.94
2022-10-21T04:09:21.376Z,99349.50
2022-10-21T04:10:22.888Z,99325.91
2022-10-21T04:11:24.718Z,99343.09
2022-10-21T04:12:27.082Z,99303.03
2022-10-21T04:13:28.909Z,99318.31
2022-10-21T04:14:30.653Z,99303.56
2022-10-21T04:15:32.282Z,99270.88
2022-10-21T04:16:34.403Z,99300.50
2022-10-21T04:17:35.998Z,99275.31
2022-10-21T04:18:37.937Z,99301.44
2022-10-21T04:19:40.492Z,99275.09
2022-10-21T04:20:44.492Z,99302.09
2022-10-21T04:21:46.652Z,99320.28
2022-10-21T04:22:48.495Z,99327.81
2022-10-21T04:23:50.019Z,99269.22
2022-10-21T04:24:51.920Z,99327.88
2022-10-21T04:25:53.914Z,99355.78
2022-10-21T04:26:55.629Z,99255.31
2022-10-21T04:27:57.528Z,99304.66
2022-10-21T04:29:00.051Z,99308.69
2022-10-21T04:30:02.557Z,99326.88
2022-10-21T04:31:07.178Z,99315.28
2022-10-21T04:32:09.660Z,99335.13
2022-10-21T04:33:12.713Z,99275.31
2022-10-21T04:34:15.041Z,99306.59
2022-10-21T04:35:20.486Z,99299.31
2022-10-21T04:36:23.955Z,99344.53
2022-10-21T04:37:25.579Z,99304.19
2022-10-21T04:38:27.676Z,99338.53
2022-10-21T04:39:30.008Z,99327.78
2022-10-21T04:40:31.757Z,99354.34
2022-10-21T04:41:33.913Z,99362.38
2022-10-21T04:42:36.769Z,99293.88
2022-10-21T04:43:38.737Z,99331.38
2022-10-21T04:44:40.487Z,99348.56
2022-10-21T04:45:42.253Z,99364.06
2022-10-21T04:46:43.962Z,99342.34
2022-10-21T04:47:45.428Z,99329.50
2022-10-21T04:48:47.097Z,99342.44
2022-10-21T04:49:48.716Z,99326.31
2022-10-21T04:50:52.551Z,99353.50
2022-10-21T04:51:55.261Z,99299.75
2022-10-21T04:52:57.234Z,99337.06
2022-10-21T04:53:58.839Z,99324.81
2022-10-21T04:55:00.783Z,99347.28
2022-10-21T04:56:02.729Z,99344.22
2022-10-21T04:57:04.730Z,99353.69
2022-10-21T04:58:07.322Z,99344.22
2022-10-21T04:59:09.738Z,99334.19
2022-10-21T05:00:12.035Z,99380.75
2022-10-21T05:01:13.762Z,99361.59
2022-10-21T05:02:17.749Z,99376.66
2022-10-21T05:03:22.310Z,99353.78
2022-10-21T05:04:25.323Z,99318.03
2022-10-21T05:05:26.835Z,99357.34
2022-10-21T05:06:28.754Z,99358.91
2022-10-21T05:07:30.321Z,99367.78
2022-10-21T05:08:33.249Z,99355.94
2022-10-21T05:09:35.733Z,99365.25
2022-10-21T05:10:37.698Z,99341.97
2022-10-21T05:11:39.557Z,99363.38
2022-10-21T05:12:41.619Z,99315.72
2022-10-21T05:13:43.389Z,99297.97
2022-10-21T05:14:44.994Z,99369.31
2022-10-21T05:15:47.087Z,99358.50
2022-10-21T05:16:48.839Z,99355.56
2022-10-21T05:17:51.630Z,99301.91
2022-10-21T05:18:54.714Z,99314.50
2022-10-21T05:19:56.614Z,99332.72
2022-10-21T05:21:00.154Z,99352.53
2022-10-21T05:22:01.978Z,99351.31
2022-10-21T05:23:03.703Z,99357.97
2022-10-21T05:24:05.849Z,99380.16
2022-10-21T05:25:08.521Z,99333.69
2022-10-21T05:26:10.176Z,99325.06
2022-10-21T05:27:11.936Z,99274.88
2022-10-21T05:28:14.945Z,99336.78
2022-10-21T05:29:17.689Z,99358.63
2022-10-21T05:30:19.375Z,99323.78
2022-10-21T05:31:21.276Z,99359.84
2022-10-21T05:32:23.210Z,99331.28
2022-10-21T05:33:24.763Z,99298.97
2022-10-21T05:34:26.389Z,99297.94
2022-10-21T05:35:28.986Z,99356.53
2022-10-21T05:36:30.826Z,99288.25
2022-10-21T05:37:33.885Z,99325.38
2022-10-21T05:38:36.968Z,99315.75
2022-10-21T05:39:38.927Z,99338.22
2022-10-21T05:40:41.097Z,99328.63
2022-10-21T05:41:45.489Z,99326.13
2022-10-21T05:42:49.543Z,99320.19
2022-10-21T05:43:51.247Z,99266.53
2022-10-21T05:44:55.189Z,99317.50
2022-10-21T05:45:57.782Z,99314.44
2022-10-21T05:47:00.059Z,99320.53
2022-10-21T05:48:01.661Z,99314.13
2022-10-21T05:49:04.054Z,99313.47
2022-10-21T05:50:06.420Z,99323.69
2022-10-21T05:51:12.112Z,99325.50
2022-10-21T05:52:14.242Z,99329.69
2022-10-21T05:53:16.883Z,99313.47
2022-10-21T05:54:19.006Z,99304.19
2022-10-21T05:55:20.987Z,99325.28
2022-10-21T05:56:22.595Z,99308.44
2022-10-21T05:57:24.880Z,99289.53
2022-10-21T05:58:28.701Z,99315.47
2022-10-21T05:59:30.896Z,99284.81
2022-10-21T06:00:32.666Z,99290.44
2022-10-21T06:01:34.928Z,99294.53
2022-10-21T06:02:39.134Z,99243.63
2022-10-21T06:03:40.939Z,99267.66
2022-10-21T06:04:42.805Z,99309.47
2022-10-21T06:05:44.639Z,99290.44
2022-10-21T06:06:46.949Z,99312.03
2022-10-21T06:07:48.857Z,99294.03
2022-10-21T06:08:53.637Z,99315.41
2022-10-21T06:09:55.519Z,99271.09
2022-10-21T06:11:11.230Z,99340.03
2022-10-21T06:12:13.097Z,99311.06
2022-10-21T06:13:15.146Z,99298.63
2022-10-21T06:14:19.883Z,99235.75
2022-10-21T06:15:21.877Z,99320.84
2022-10-21T06:16:24.901Z,99280.28
2022-10-21T06:17:26.481Z,99313.78
2022-10-21T06:18:30.392Z,99309.69
2022-10-21T06:19:33.687Z,99322.75
2022-10-21T06:20:38.816Z,99302.69
2022-10-21T06:21:40.592Z,99287.88
2022-10-21T06:22:42.259Z,99327.69
2022-10-21T06:23:44.220Z,99305.47
2022-10-21T06:24:46.930Z,99346.44
2022-10-21T06:26:07.045Z,99332.13
2022-10-21T06:27:11.160Z,99357.50
2022-10-21T06:28:12.767Z,99324.13
2022-10-21T06:29:16.068Z,99353.81
2022-10-21T06:30:17.720Z,99357.19
2022-10-21T06:31:21.739Z,99298.81
2022-10-21T06:32:23.677Z,99334.09
2022-10-21T06:33:27.340Z,99342.34
2022-10-21T06:34:29.386Z,99332.31
2022-10-21T06:35:31.068Z,99347.28
2022-10-21T06:36:33.314Z,99343.06
2022-10-21T06:37:35.101Z,99348.25
2022-10-21T06:38:37.905Z,99331.56
2022-10-21T06:39:40.924Z,99317.03
2022-10-21T06:40:43.104Z,99285.53
2022-10-21T06:41:44.893Z,99247.84
2022-10-21T06:42:46.933Z,99264.59
2022-10-21T06:43:48.591Z,99252.56
2022-10-21T06:44:52.771Z,99314.94
2022-10-21T06:46:04.447Z,99283.94
2022-10-21T06:47:07.604Z,99255.53
2022-10-21T06:48:13.638Z,99295.44
2022-10-21T06:49:15.337Z,99292.81
2022-10-21T06:50:18.209Z,99293.63
2022-10-21T06:51:22.377Z,99288.81
2022-10-21T06:53:28.061Z,99279.44
2022-10-21T06:54:30.548Z,99271.97
2022-10-21T06:55:32.342Z,99281.13
2022-10-21T06:56:36.405Z,99326.63
2022-10-21T06:57:38.516Z,99369.63
2022-10-21T06:58:44.787Z,99333.06
2022-10-21T06:59:47.832Z,99303.56
2022-10-21T07:00:50.190Z,99346.44
2022-10-21T07:02:00.618Z,99293.03
2022-10-21T07:03:03.168Z,99337.28
2022-10-21T07:04:07.170Z,99342.97
2022-10-21T07:05:09.383Z,99351.50
2022-10-21T07:06:11.027Z,99388.91
2022-10-21T07:07:13.367Z,99327.25
2022-10-21T07:08:15.108Z,99309.88
2022-10-21T07:09:19.553Z,99304.91
2022-10-21T07:10:21.486Z,99353.09
2022-10-21T07:11:23.393Z,99361.94
2022-10-21T07:12:26.897Z,99354.78
2022-10-21T07:13:28.563Z,99353.28
2022-10-21T07:14:30.914Z,99361.94
2022-10-21T07:15:32.570Z,99371.22
2022-10-21T07:16:36.782Z,99355.81
2022-10-21T07:17:38.688Z,99369.75
2022-10-21T07:18:42.651Z,99372.78
2022-10-21T07:19:44.922Z,99369.84
2022-10-21T07:20:46.717Z,99356.56
2022-10-21T07:21:48.354Z,99325.06
2022-10-21T07:22:50.218Z,99372.91
2022-10-21T07:23:54.724Z,99389.59
2022-10-21T07:24:58.516Z,99362.66
2022-10-21T07:26:06.140Z,99374.25
2022-10-21T07:27:07.961Z,99360.06
2022-10-21T07:28:09.545Z,99367.00
2022-10-21T07:29:14.311Z,99349.69
2022-10-21T07:30:18.765Z,99338.34
2022-10-21T07:31:21.982Z,99343.16
2022-10-21T07:32:23.770Z,99345.31
2022-10-21T07:33:26.008Z,99309.47
2022-10-21T07:34:32.649Z,99310.00
2022-10-21T07:35:34.791Z,99350.97
2022-10-21T07:36:40.809Z,99341.63
2022-10-21T07:37:43.503Z,99342.56
2022-10-21T07:38:48.659Z,99345.72
2022-10-21T07:39:50.764Z,99335.09
2022-10-21T07:40:52.423Z,99356.69
2022-10-21T07:41:58.165Z,99355.94
2022-10-21T07:43:01.583Z,99349.50
2022-10-21T07:44:04.521Z,99365.44
2022-10-21T07:45:06.874Z,99379.25
2022-10-21T07:46:09.959Z,99377.34
2022-10-21T07:47:11.658Z,99378.28
2022-10-21T07:48:14.215Z,99387.06
2022-10-21T07:49:17.657Z,99341.38
2022-10-21T07:50:19.716Z,99375.63
2022-10-21T07:51:28.600Z,99390.19
2022-10-21T07:52:34.930Z,99344.66
2022-10-21T07:53:41.058Z,99386.75
2022-10-21T07:54:45.327Z,99369.22
2022-10-21T07:55:47.355Z,99344.25
2022-10-21T07:56:51.286Z,99397.19
2022-10-21T07:57:53.745Z,99384.19
2022-10-21T07:58:56.512Z,99387.47
2022-10-21T07:59:58.826Z,99351.91
2022-10-21T08:01:07.518Z,99398.88
2022-10-21T08:02:14.311Z,99400.13
2022-10-21T08:03:16.076Z,99432.19
2022-10-21T08:04:20.643Z,99400.97
2022-10-21T08:05:23.744Z,99381.44
2022-10-21T08:06:27.667Z,99368.69
2022-10-21T08:07:31.849Z,99355.19
2022-10-21T08:08:34.158Z,99394.00
2022-10-21T08:09:37.587Z,99398.44
2022-10-21T08:10:41.793Z,99399.44
2022-10-21T08:11:44.282Z,99416.16
2022-10-21T08:12:46.843Z,99379.63
2022-10-21T08:13:48.885Z,99398.63
2022-10-21T08:14:51.335Z,99380.38
2022-10-21T08:15:54.714Z,99372.59
2022-10-21T08:16:57.159Z,99427.22
2022-10-21T08:17:58.919Z,99387.88
2022-10-21T08:19:02.175Z,99393.13
2022-10-21T08:20:04.192Z,99401.78
2022-10-21T08:21:07.338Z,99446.09
2022-10-21T08:22:09.343Z,99439.03
2022-10-21T08:23:12.941Z,99469.72
2022-10-21T08:24:14.544Z,99408.75
2022-10-21T08:25:17.262Z,99406.63
2022-10-21T08:26:19.525Z,99460.22
2022-10-21T08:27:21.575Z,99425.00
2022-10-21T08:28:25.872Z,99440.19
2022-10-21T08:29:27.441Z,99419.44
2022-10-21T08:30:32.388Z,99449.91
2022-10-21T08:31:35.617Z,99410.22
2022-10-21T08:32:39.137Z,99432.97
2022-10-21T08:33:41.929Z,99442.41
2022-10-21T08:34:45.596Z,99414.41
2022-10-21T08:35:47.644Z,99419.81
2022-10-21T08:36:49.291Z,99407.16
2022-10-21T08:37:51.520Z,99407.97
2022-10-21T08:38:54.878Z,99456.44
2022-10-21T08:39:56.922Z,99460.75
2022-10-21T08:41:00.327Z,99430.03
2022-10-21T08:42:02.084Z,99466.97
2022-10-21T08:43:10.049Z,99468.44
2022-10-21T08:44:31.541Z,99472.03
2022-10-21T08:45:43.143Z,99440.88
2022-10-21T08:46:56.246Z,99419.28
2022-10-21T08:48:03.792Z,99425.81
2022-10-21T08:49:14.568Z,99436.34
2022-10-21T08:50:20.406Z,99451.84
2022-10-21T08:51:40.739Z,99449.00
2022-10-21T08:52:48.904Z,99483.22
2022-10-21T08:53:52.751Z,99427.94
2022-10-21T08:55:00.519Z,99435.84
2022-10-21T08:56:15.769Z,99436.81
2022-10-21T08:57:22.022Z,99440.63
2022-10-21T08:58:24.971Z,99457.59
2022-10-21T08:59:26.968Z,99447.56
2022-10-21T09:00:38.701Z,99481.75
2022-10-21T09:01:55.482Z,99447.88
2022-10-21T09:03:27.357Z,99391.91
2022-10-21T09:04:50.746Z,99468.44
2022-10-21T09:06:08.442Z,99480.47
2022-10-21T09:07:26.990Z,99466.44
2022-10-21T09:08:42.631Z,99485.13
2022-10-21T09:09:51.884Z,99428.59
2022-10-21T09:11:01.191Z,99482.56
2022-10-21T09:12:17.968Z,99458.13
2022-10-21T09:13:36.187Z,99488.16
2022-10-21T09:15:11.536Z,99483.84
2022-10-21T09:16:44.560Z,99487.19
2022-10-21T09:18:05.548Z,99493.72
2022-10-21T09:19:32.735Z,99461.88
2022-10-21T09:20:56.092Z,99506.56
2022-10-21T09:22:16.097Z,99511.56
2022-10-21T09:24:44.306Z,99504.94
2022-10-21T09:26:42.654Z,99492.16
2022-10-21T09:27:55.437Z,99532.28
2022-10-21T09:29:02.029Z,99514.97
2022-10-21T09:30:07.740Z,99470.88
2022-10-21T09:31:17.033Z,99519.06
2022-10-21T09:32:42.021Z,99499.78
2022-10-21T09:34:03.991Z,99505.13
2022-10-21T09:35:14.154Z,99513.59
2022-10-21T09:36:26.253Z,99494.59
2022-10-21T09:37:44.941Z,99526.06
2022-10-21T09:38:56.104Z,99524.16
2022-10-21T09:40:13.442Z,99513.38
2022-10-21T09:41:19.579Z,99474.56
2022-10-21T09:42:42.680Z,99481.00
2022-10-21T09:43:48.727Z,99507.47
2022-10-21T09:44:51.775Z,99539.44
2022-10-21T09:45:54.623Z,99518.22
2022-10-21T09:46:56.517Z,99490.81
2022-10-21T09:48:03.700Z,99529.41
2022-10-21T09:49:36.767Z,99499.03
2022-10-21T09:50:29.510Z,99528.78
2022-10-21T09:51:34.541Z,99519.56
2022-10-21T09:52:37.960Z,99508.06
2022-10-21T09:53:54.126Z,99488.69
2022-10-21T09:54:56.856Z,99515.56
2022-10-21T09:56:05.317Z,99502.38
2022-10-21T09:57:24.143Z,99505.22
2022-10-21T09:58:28.793Z,99503.84
2022-10-21T09:59:33.263Z,99509.19
2022-10-21T10:00:49.550Z,99505.88
2022-10-21T10:01:52.419Z,99505.63
2022-10-21T10:02:54.637Z,99485.63
2022-10-21T10:03:57.395Z,99504.03
2022-10-21T10:05:01.269Z,99524.19
2022-10-21T10:06:05.957Z,99517.75
2022-10-21T10:07:29.719Z,99500.66
2022-10-21T10:08:44.989Z,99500.84
2022-10-21T10:09:49.037Z,99442.63
2022-10-21T10:10:50.601Z,99496.97
2022-10-21T10:12:15.778Z,99530.41
2022-10-21T10:13:20.064Z,99487.13
2022-10-21T10:14:29.280Z,99517.22
2022-10-21T10:15:37.666Z,99480.59
2022-10-21T10:16:39.878Z,99525.38
2022-10-21T10:17:41.684Z,99503.72
2022-10-21T10:18:44.940Z,99461.16
2022-10-21T10:20:05.263Z,99512.53
2022-10-21T10:21:18.804Z,99485.69
2022-10-21T10:22:20.729Z,99524.91
2022-10-21T10:23:22.639Z,99489.78
2022-10-21T10:24:24.414Z,99535.81
2022-10-21T10:25:32.577Z,99529.28
2022-10-21T10:26:38.408Z,99501.63
2022-10-21T10:27:54.257Z,99488.81
2022-10-21T10:29:08.468Z,99547.69
2022-10-21T10:30:15.978Z,99516.78
2022-10-21T10:31:53.227Z,99461.75
2022-10-21T10:32:56.590Z,99473.56
2022-10-21T10:34:04.043Z,99524.00
2022-10-21T10:35:15.628Z,99479.69
2022-10-21T10:36:27.864Z,99518.31
2022-10-21T10:37:37.020Z,99517.38
2022-10-21T10:38:54.241Z,99517.88
2022-10-21T10:39:58.684Z,99514.00
2022-10-21T10:49:21.624Z,99478.19
2022-10-21T10:50:39.564Z,99503.47
2022-10-21T10:51:43.310Z,99527.03
2022-10-21T10:52:45.029Z,99517.69
2022-10-21T10:54:00.704Z,99488.13
2022-10-21T10:55:11.410Z,99516.03
2022-10-21T10:56:42.657Z,99516.41
2022-10-21T10:58:05.866Z,99511.56
2022-10-21T10:59:21.841Z,99501.34
2022-10-21T11:00:24.016Z,99462.84
2022-10-21T11:01:34.788Z,99486.31
2022-10-21T11:02:58.939Z,99500.28
2022-10-21T11:04:19.112Z,99448.47
2022-10-21T11:05:30.630Z,99502.09
2022-10-21T11:06:41.478Z,99497.53
2022-10-21T11:07:50.613Z,99482.00
2022-10-21T11:08:57.569Z,99476.72
2022-10-21T11:10:08.235Z,99510.88
2022-10-21T11:11:28.542Z,99491.94
2022-10-21T11:12:34.674Z,99502.84
2022-10-21T11:13:42.056Z,99453.75
2022-10-21T11:14:47.329Z,99514.50
2022-10-21T11:16:11.797Z,99502.56
2022-10-21T11:17:19.658Z,99454.72
2022-10-21T11:18:40.571Z,99498.53
2022-10-21T11:19:53.235Z,99494.50
2022-10-21T11:21:14.314Z,99492.47
2022-10-21T11:22:36.191Z,99500.94
2022-10-21T11:23:41.675Z,99500.03
2022-10-21T11:24:54.803Z,99479.81
2022-10-21T11:26:20.211Z,99509.78
2022-10-21T11:27:50.283Z,99476.81
2022-10-21T11:29:05.438Z,99498.28
2022-10-21T11:30:49.013Z,99494.19
2022-10-21T11:32:12.864Z,99474.53
2022-10-21T11:33:23.919Z,99491.16
2022-10-21T11:34:37.023Z,99478.97
2022-10-21T11:35:55.521Z,99494.63
2022-10-21T11:37:26.469Z,99482.47
2022-10-21T11:38:51.258Z,99482.47
2022-10-21T11:40:03.601Z,99478.94
2022-10-21T11:41:31.752Z,99485.69
2022-10-21T11:42:41.936Z,99481.63
2022-10-21T11:43:53.022Z,99486.31
2022-10-21T11:45:27.155Z,99477.16
2022-10-21T11:46:58.172Z,99491.88
2022-10-21T11:48:30.748Z,99488.81
2022-10-21T11:49:48.427Z,99485.94
2022-10-21T11:51:12.752Z,99485.69
2022-10-21T11:52:19.710Z,99488.09
2022-10-21T11:53:24.312Z,99492.91
2022-10-21T11:55:10.523Z,99495.88
2022-10-21T11:56:28.839Z,99484.66
2022-10-21T11:57:45.860Z,99479.03
2022-10-21T11:58:56.707Z,99461.81
2022-10-21T12:00:23.567Z,99472.47
2022-10-21T12:01:47.226Z,99508.44
2022-10-21T12:03:22.505Z,99492.94
2022-10-21T12:04:44.632Z,99484.38
2022-10-21T12:05:53.116Z,99460.31
2022-10-21T12:07:00.611Z,99482.19
2022-10-21T12:08:16.685Z,99465.81
2022-10-21T12:09:30.589Z,99489.13
2022-10-21T12:10:35.115Z,99496.38
2022-10-21T12:11:46.225Z,99499.28
2022-10-21T12:12:50.587Z,99475.56
2022-10-21T12:13:57.759Z,99497.78
2022-10-21T12:15:05.020Z,99466.91
2022-10-21T12:16:11.053Z,99491.78
2022-10-21T12:17:21.446Z,99456.56
2022-10-21T12:18:27.711Z,99484.00
2022-10-21T12:19:29.878Z,99477.06
2022-10-21T12:20:33.487Z,99462.06
2022-10-21T12:21:39.515Z,99486.47
2022-10-21T12:22:43.549Z,99470.22
2022-10-21T12:23:53.525Z,99454.81
2022-10-21T12:25:08.469Z,99434.81
2022-10-21T12:26:57.363Z,99483.59
2022-10-21T12:28:02.196Z,99482.03
2022-10-21T12:29:43.200Z,99474.38
2022-10-21T12:31:00.772Z,99474.25
2022-10-21T12:32:18.577Z,99471.72
2022-10-21T12:33:41.863Z,99468.09
2022-10-21T12:34:44.826Z,99455.06
2022-10-21T12:35:50.567Z,99469.06
2022-10-21T12:36:54.942Z,99434.75
2022-10-21T12:38:06.221Z,99462.63
2022-10-21T12:39:16.261Z,99472.88
2022-10-21T12:40:26.597Z,99476.25
2022-10-21T12:41:36.645Z,99469.72
2022-10-21T12:42:46.053Z,99475.56
2022-10-21T12:44:05.827Z,99477.09
2022-10-21T12:45:27.133Z,99467.53
2022-10-21T12:46:45.762Z,99461.63
2022-10-21T12:47:49.096Z,99442.31
2022-10-21T12:48:52.541Z,99480.47
2022-10-21T12:50:17.806Z,99461.34
2022-10-21T12:51:24.466Z,99456.41
2022-10-21T12:52:26.869Z,99456.69
2022-10-21T12:53:47.656Z,99452.22
2022-10-21T12:55:03.553Z,99414.34
2022-10-21T12:56:10.202Z,99419.72
2022-10-21T12:57:26.114Z,99434.28
2022-10-21T12:58:33.887Z,99431.44
2022-10-21T12:59:43.784Z,99441.91
2022-10-21T13:01:14.459Z,99463.84
2022-10-21T13:02:28.000Z,99470.00
2022-10-21T13:03:51.213Z,99461.19
2022-10-21T13:04:56.276Z,99452.81
2022-10-21T13:06:03.957Z,99455.75
2022-10-21T13:07:30.599Z,99458.22
2022-10-21T13:08:40.904Z,99472.75
2022-10-21T13:09:43.961Z,99480.41
2022-10-21T13:11:06.350Z,99478.09
2022-10-21T13:12:11.004Z,99470.03
2022-10-21T13:13:43.211Z,99469.44
2022-10-21T13:14:50.668Z,99419.66
2022-10-21T13:15:55.484Z,99425.06
2022-10-21T13:17:28.951Z,99483.44
2022-10-21T13:18:50.639Z,99486.38
2022-10-21T13:20:14.744Z,99476.44
2022-10-21T13:21:38.423Z,99474.97
2022-10-21T13:22:42.732Z,99475.22
2022-10-21T13:23:45.161Z,99473.31
2022-10-21T13:24:48.292Z,99418.56
2022-10-21T13:26:12.830Z,99447.47
2022-10-21T13:28:42.680Z,99451.94
2022-10-21T13:29:48.869Z,99422.44